sensor_id;sensor_type;location;lat;lon;timestamp;P1;durP1;ratioP1;P2;durP2;ratioP2
46889;SDS011;32625;51.080;16.970;2022-07-23T00:00:26;14.13;;;12.65;;
46889;SDS011;32625;51.080;16.970;2022-07-23T00:02:53;14.38;;;12.98;;
46889;SDS011;32625;51.080;16.970;2022-07-23T00:05:21;15.13;;;13.32;;
46889;SDS011;32625;51.080;16.970;2022-07-23T00:07:49;13.43;;;12.23;;
46889;SDS011;32625;51.080;16.970;2022-07-23T00:10:16;14.95;;;13.45;;
46889;SDS011;32625;51.080;16.970;2022-07-23T00:12:44;15.68;;;14.20;;
46889;SDS011;32625;51.080;16.970;2022-07-23T00:15:17;14.57;;;13.13;;
46889;SDS011;32625;51.080;16.970;2022-07-23T00:17:44;18.60;;;12.80;;
46889;SDS011;32625;51.080;16.970;2022-07-23T00:20:12;20.88;;;12.38;;
46889;SDS011;32625;51.080;16.970;2022-07-23T00:22:48;14.13;;;12.25;;
46889;SDS011;32625;51.080;16.970;2022-07-23T00:25:17;16.05;;;12.18;;
46889;SDS011;32625;51.080;16.970;2022-07-23T00:27:54;16.77;;;12.32;;
46889;SDS011;32625;51.080;16.970;2022-07-23T00:30:22;13.35;;;12.20;;
46889;SDS011;32625;51.080;16.970;2022-07-23T00:32:53;14.73;;;13.18;;
46889;SDS011;32625;51.080;16.970;2022-07-23T00:35:25;15.95;;;11.85;;
46889;SDS011;32625;51.080;16.970;2022-07-23T00:37:55;16.40;;;12.65;;
46889;SDS011;32625;51.080;16.970;2022-07-23T00:40:24;15.10;;;12.52;;
46889;SDS011;32625;51.080;16.970;2022-07-23T00:42:51;12.85;;;11.75;;
46889;SDS011;32625;51.080;16.970;2022-07-23T00:45:19;13.63;;;12.23;;
46889;SDS011;32625;51.080;16.970;2022-07-23T00:47:47;14.02;;;12.40;;
46889;SDS011;32625;51.080;16.970;2022-07-23T00:50:14;14.00;;;11.75;;
46889;SDS011;32625;51.080;16.970;2022-07-23T00:52:41;13.18;;;11.80;;
46889;SDS011;32625;51.080;16.970;2022-07-23T00:55:09;14.90;;;12.40;;
46889;SDS011;32625;51.080;16.970;2022-07-23T00:57:39;14.48;;;11.40;;
46889;SDS011;32625;51.080;16.970;2022-07-23T01:00:08;15.85;;;11.52;;
46889;SDS011;32625;51.080;16.970;2022-07-23T01:02:38;14.85;;;12.40;;
46889;SDS011;32625;51.080;16.970;2022-07-23T01:05:07;13.00;;;11.63;;
46889;SDS011;32625;51.080;16.970;2022-07-23T01:07:35;13.20;;;11.82;;
46889;SDS011;32625;51.080;16.970;2022-07-23T01:10:04;16.17;;;12.18;;
46889;SDS011;32625;51.080;16.970;2022-07-23T01:12:52;13.10;;;11.73;;
46889;SDS011;32625;51.080;16.970;2022-07-23T01:15:20;13.65;;;12.13;;
46889;SDS011;32625;51.080;16.970;2022-07-23T01:17:47;15.63;;;12.10;;
46889;SDS011;32625;51.080;16.970;2022-07-23T01:20:16;14.00;;;12.65;;
46889;SDS011;32625;51.080;16.970;2022-07-23T01:22:44;14.02;;;12.50;;
46889;SDS011;32625;51.080;16.970;2022-07-23T01:25:12;16.48;;;12.93;;
46889;SDS011;32625;51.080;16.970;2022-07-23T01:27:46;15.25;;;13.85;;
46889;SDS011;32625;51.080;16.970;2022-07-23T01:30:14;16.00;;;13.05;;
46889;SDS011;32625;51.080;16.970;2022-07-23T01:32:41;14.10;;;12.60;;
46889;SDS011;32625;51.080;16.970;2022-07-23T01:35:09;15.73;;;12.75;;
46889;SDS011;32625;51.080;16.970;2022-07-23T01:37:37;12.88;;;11.75;;
46889;SDS011;32625;51.080;16.970;2022-07-23T01:40:06;13.82;;;12.43;;
46889;SDS011;32625;51.080;16.970;2022-07-23T01:42:36;13.85;;;12.52;;
46889;SDS011;32625;51.080;16.970;2022-07-23T01:45:06;14.70;;;11.77;;
46889;SDS011;32625;51.080;16.970;2022-07-23T01:47:35;13.40;;;12.05;;
46889;SDS011;32625;51.080;16.970;2022-07-23T01:50:02;13.68;;;12.27;;
46889;SDS011;32625;51.080;16.970;2022-07-23T01:52:40;14.43;;;13.02;;
46889;SDS011;32625;51.080;16.970;2022-07-23T01:55:08;16.92;;;13.50;;
46889;SDS011;32625;51.080;16.970;2022-07-23T01:57:45;14.68;;;12.80;;
46889;SDS011;32625;51.080;16.970;2022-07-23T02:00:17;14.20;;;12.63;;
46889;SDS011;32625;51.080;16.970;2022-07-23T02:02:47;13.40;;;11.82;;
46889;SDS011;32625;51.080;16.970;2022-07-23T02:05:14;15.57;;;12.30;;
46889;SDS011;32625;51.080;16.970;2022-07-23T02:07:44;23.45;;;12.90;;
46889;SDS011;32625;51.080;16.970;2022-07-23T02:10:11;15.10;;;12.80;;
46889;SDS011;32625;51.080;16.970;2022-07-23T02:12:39;14.43;;;12.93;;
46889;SDS011;32625;51.080;16.970;2022-07-23T02:15:08;14.52;;;13.02;;
46889;SDS011;32625;51.080;16.970;2022-07-23T02:17:38;13.65;;;12.23;;
46889;SDS011;32625;51.080;16.970;2022-07-23T02:20:07;15.02;;;12.52;;
46889;SDS011;32625;51.080;16.970;2022-07-23T02:22:36;14.50;;;13.00;;
46889;SDS011;32625;51.080;16.970;2022-07-23T02:25:04;14.77;;;13.27;;
46889;SDS011;32625;51.080;16.970;2022-07-23T02:27:33;17.80;;;13.43;;
46889;SDS011;32625;51.080;16.970;2022-07-23T02:30:04;14.65;;;13.20;;
46889;SDS011;32625;51.080;16.970;2022-07-23T02:32:33;14.85;;;13.27;;
46889;SDS011;32625;51.080;16.970;2022-07-23T02:35:02;15.75;;;14.15;;
46889;SDS011;32625;51.080;16.970;2022-07-23T02:37:30;14.68;;;13.20;;
46889;SDS011;32625;51.080;16.970;2022-07-23T02:39:58;15.27;;;13.23;;
46889;SDS011;32625;51.080;16.970;2022-07-23T02:42:26;14.60;;;13.10;;
46889;SDS011;32625;51.080;16.970;2022-07-23T02:44:53;17.50;;;13.35;;
46889;SDS011;32625;51.080;16.970;2022-07-23T02:47:20;15.35;;;13.00;;
46889;SDS011;32625;51.080;16.970;2022-07-23T02:49:48;15.70;;;13.07;;
46889;SDS011;32625;51.080;16.970;2022-07-23T02:52:15;15.35;;;13.05;;
46889;SDS011;32625;51.080;16.970;2022-07-23T02:54:43;16.30;;;14.23;;
46889;SDS011;32625;51.080;16.970;2022-07-23T02:57:13;17.20;;;13.88;;
46889;SDS011;32625;51.080;16.970;2022-07-23T02:59:41;15.73;;;14.10;;
46889;SDS011;32625;51.080;16.970;2022-07-23T03:02:08;15.23;;;12.90;;
46889;SDS011;32625;51.080;16.970;2022-07-23T03:04:37;14.38;;;12.98;;
46889;SDS011;32625;51.080;16.970;2022-07-23T03:07:04;15.95;;;14.23;;
46889;SDS011;32625;51.080;16.970;2022-07-23T03:09:32;15.05;;;13.52;;
46889;SDS011;32625;51.080;16.970;2022-07-23T03:11:59;15.75;;;13.38;;
46889;SDS011;32625;51.080;16.970;2022-07-23T03:14:26;15.27;;;13.73;;
46889;SDS011;32625;51.080;16.970;2022-07-23T03:16:55;15.65;;;12.95;;
46889;SDS011;32625;51.080;16.970;2022-07-23T03:19:22;13.80;;;12.40;;
46889;SDS011;32625;51.080;16.970;2022-07-23T03:21:50;15.48;;;12.50;;
46889;SDS011;32625;51.080;16.970;2022-07-23T03:24:18;15.05;;;13.57;;
46889;SDS011;32625;51.080;16.970;2022-07-23T03:26:45;14.30;;;12.80;;
46889;SDS011;32625;51.080;16.970;2022-07-23T03:29:13;14.85;;;13.30;;
46889;SDS011;32625;51.080;16.970;2022-07-23T03:31:41;15.13;;;13.43;;
46889;SDS011;32625;51.080;16.970;2022-07-23T03:34:09;15.93;;;13.13;;
46889;SDS011;32625;51.080;16.970;2022-07-23T03:36:36;16.90;;;13.90;;
46889;SDS011;32625;51.080;16.970;2022-07-23T03:39:05;15.10;;;13.57;;
46889;SDS011;32625;51.080;16.970;2022-07-23T03:41:38;13.40;;;12.00;;
46889;SDS011;32625;51.080;16.970;2022-07-23T03:44:05;15.85;;;14.13;;
46889;SDS011;32625;51.080;16.970;2022-07-23T03:46:32;15.00;;;13.60;;
46889;SDS011;32625;51.080;16.970;2022-07-23T03:49:00;20.92;;;13.68;;
46889;SDS011;32625;51.080;16.970;2022-07-23T03:51:28;19.92;;;13.82;;
46889;SDS011;32625;51.080;16.970;2022-07-23T03:53:55;16.35;;;13.32;;
46889;SDS011;32625;51.080;16.970;2022-07-23T03:56:23;15.63;;;13.82;;
46889;SDS011;32625;51.080;16.970;2022-07-23T03:58:50;15.07;;;13.57;;
46889;SDS011;32625;51.080;16.970;2022-07-23T04:01:17;15.57;;;13.85;;
46889;SDS011;32625;51.080;16.970;2022-07-23T04:03:45;16.25;;;12.82;;
46889;SDS011;32625;51.080;16.970;2022-07-23T04:06:13;15.57;;;13.93;;
46889;SDS011;32625;51.080;16.970;2022-07-23T04:08:40;14.05;;;12.50;;
46889;SDS011;32625;51.080;16.970;2022-07-23T04:11:07;15.32;;;13.43;;
46889;SDS011;32625;51.080;16.970;2022-07-23T04:13:35;18.50;;;12.73;;
46889;SDS011;32625;51.080;16.970;2022-07-23T04:16:03;13.85;;;12.52;;
46889;SDS011;32625;51.080;16.970;2022-07-23T04:18:30;16.98;;;13.25;;
46889;SDS011;32625;51.080;16.970;2022-07-23T04:21:19;17.80;;;13.10;;
46889;SDS011;32625;51.080;16.970;2022-07-23T04:23:47;16.73;;;13.73;;
46889;SDS011;32625;51.080;16.970;2022-07-23T04:26:15;14.30;;;12.73;;
46889;SDS011;32625;51.080;16.970;2022-07-23T04:28:45;14.57;;;13.13;;
46889;SDS011;32625;51.080;16.970;2022-07-23T04:31:12;14.25;;;12.73;;
46889;SDS011;32625;51.080;16.970;2022-07-23T04:33:40;14.40;;;12.85;;
46889;SDS011;32625;51.080;16.970;2022-07-23T04:36:08;20.67;;;12.82;;
46889;SDS011;32625;51.080;16.970;2022-07-23T04:38:35;18.92;;;12.70;;
46889;SDS011;32625;51.080;16.970;2022-07-23T04:41:03;14.10;;;12.60;;
46889;SDS011;32625;51.080;16.970;2022-07-23T04:43:31;15.70;;;13.68;;
46889;SDS011;32625;51.080;16.970;2022-07-23T04:45:58;14.75;;;13.35;;
46889;SDS011;32625;51.080;16.970;2022-07-23T04:48:29;15.60;;;13.13;;
46889;SDS011;32625;51.080;16.970;2022-07-23T04:51:04;14.45;;;12.40;;
46889;SDS011;32625;51.080;16.970;2022-07-23T04:53:33;13.93;;;12.20;;
46889;SDS011;32625;51.080;16.970;2022-07-23T04:56:00;14.27;;;12.82;;
46889;SDS011;32625;51.080;16.970;2022-07-23T04:58:29;14.88;;;12.68;;
46889;SDS011;32625;51.080;16.970;2022-07-23T05:00:58;14.93;;;13.27;;
46889;SDS011;32625;51.080;16.970;2022-07-23T05:03:27;13.73;;;11.77;;
46889;SDS011;32625;51.080;16.970;2022-07-23T05:05:54;16.92;;;13.55;;
46889;SDS011;32625;51.080;16.970;2022-07-23T05:08:22;14.75;;;11.95;;
46889;SDS011;32625;51.080;16.970;2022-07-23T05:10:53;13.20;;;11.90;;
46889;SDS011;32625;51.080;16.970;2022-07-23T05:13:20;13.38;;;12.10;;
46889;SDS011;32625;51.080;16.970;2022-07-23T05:15:50;14.73;;;11.55;;
46889;SDS011;32625;51.080;16.970;2022-07-23T05:18:18;16.95;;;12.23;;
46889;SDS011;32625;51.080;16.970;2022-07-23T05:20:46;14.15;;;11.75;;
46889;SDS011;32625;51.080;16.970;2022-07-23T05:23:17;13.18;;;11.85;;
46889;SDS011;32625;51.080;16.970;2022-07-23T05:25:46;14.23;;;10.98;;
46889;SDS011;32625;51.080;16.970;2022-07-23T05:28:15;14.25;;;11.35;;
46889;SDS011;32625;51.080;16.970;2022-07-23T05:30:48;11.70;;;10.50;;
46889;SDS011;32625;51.080;16.970;2022-07-23T05:33:20;12.63;;;10.38;;
46889;SDS011;32625;51.080;16.970;2022-07-23T05:35:47;13.43;;;10.45;;
46889;SDS011;32625;51.080;16.970;2022-07-23T05:38:27;11.30;;;10.10;;
46889;SDS011;32625;51.080;16.970;2022-07-23T05:40:57;12.27;;;10.68;;
46889;SDS011;32625;51.080;16.970;2022-07-23T05:43:26;11.00;;;9.80;;
46889;SDS011;32625;51.080;16.970;2022-07-23T05:45:55;12.65;;;9.93;;
46889;SDS011;32625;51.080;16.970;2022-07-23T05:48:23;11.27;;;10.02;;
46889;SDS011;32625;51.080;16.970;2022-07-23T05:51:01;13.13;;;10.25;;
46889;SDS011;32625;51.080;16.970;2022-07-23T05:53:33;10.32;;;9.25;;
46889;SDS011;32625;51.080;16.970;2022-07-23T05:56:21;11.18;;;10.15;;
46889;SDS011;32625;51.080;16.970;2022-07-23T05:58:48;11.70;;;10.50;;
46889;SDS011;32625;51.080;16.970;2022-07-23T06:01:17;12.85;;;10.98;;
46889;SDS011;32625;51.080;16.970;2022-07-23T06:03:54;13.52;;;10.25;;
46889;SDS011;32625;51.080;16.970;2022-07-23T06:06:28;13.25;;;9.80;;
46889;SDS011;32625;51.080;16.970;2022-07-23T06:08:56;12.52;;;10.25;;
46889;SDS011;32625;51.080;16.970;2022-07-23T06:11:25;14.75;;;10.20;;
46889;SDS011;32625;51.080;16.970;2022-07-23T06:13:52;11.70;;;9.80;;
46889;SDS011;32625;51.080;16.970;2022-07-23T06:16:24;11.48;;;10.23;;
46889;SDS011;32625;51.080;16.970;2022-07-23T06:18:52;12.60;;;10.23;;
46889;SDS011;32625;51.080;16.970;2022-07-23T06:21:19;11.82;;;10.45;;
46889;SDS011;32625;51.080;16.970;2022-07-23T06:24:06;14.65;;;10.10;;
46889;SDS011;32625;51.080;16.970;2022-07-23T06:26:34;13.43;;;9.93;;
46889;SDS011;32625;51.080;16.970;2022-07-23T06:29:01;10.88;;;9.52;;
46889;SDS011;32625;51.080;16.970;2022-07-23T06:31:29;14.43;;;10.35;;
46889;SDS011;32625;51.080;16.970;2022-07-23T06:33:57;12.10;;;9.48;;
46889;SDS011;32625;51.080;16.970;2022-07-23T06:36:24;11.90;;;9.77;;
46889;SDS011;32625;51.080;16.970;2022-07-23T06:38:52;11.18;;;9.98;;
46889;SDS011;32625;51.080;16.970;2022-07-23T06:41:19;13.98;;;10.18;;
46889;SDS011;32625;51.080;16.970;2022-07-23T06:43:47;16.80;;;9.60;;
46889;SDS011;32625;51.080;16.970;2022-07-23T06:46:15;19.05;;;10.30;;
46889;SDS011;32625;51.080;16.970;2022-07-23T06:48:43;15.32;;;10.35;;
46889;SDS011;32625;51.080;16.970;2022-07-23T06:51:11;16.40;;;10.20;;
46889;SDS011;32625;51.080;16.970;2022-07-23T06:53:38;14.45;;;10.07;;
46889;SDS011;32625;51.080;16.970;2022-07-23T06:56:07;17.75;;;10.48;;
46889;SDS011;32625;51.080;16.970;2022-07-23T06:58:35;11.45;;;10.25;;
46889;SDS011;32625;51.080;16.970;2022-07-23T07:01:04;12.80;;;10.30;;
46889;SDS011;32625;51.080;16.970;2022-07-23T07:03:31;13.45;;;11.07;;
46889;SDS011;32625;51.080;16.970;2022-07-23T07:05:59;12.48;;;10.50;;
46889;SDS011;32625;51.080;16.970;2022-07-23T07:08:26;14.52;;;10.30;;
46889;SDS011;32625;51.080;16.970;2022-07-23T07:10:53;23.30;;;11.90;;
46889;SDS011;32625;51.080;16.970;2022-07-23T07:13:21;17.58;;;11.50;;
46889;SDS011;32625;51.080;16.970;2022-07-23T07:15:48;15.15;;;11.20;;
46889;SDS011;32625;51.080;16.970;2022-07-23T07:18:16;16.52;;;11.13;;
46889;SDS011;32625;51.080;16.970;2022-07-23T07:20:43;12.00;;;10.18;;
46889;SDS011;32625;51.080;16.970;2022-07-23T07:23:10;15.10;;;10.07;;
46889;SDS011;32625;51.080;16.970;2022-07-23T07:25:41;13.38;;;10.27;;
46889;SDS011;32625;51.080;16.970;2022-07-23T07:28:09;12.02;;;10.73;;
46889;SDS011;32625;51.080;16.970;2022-07-23T07:30:36;13.68;;;10.55;;
46889;SDS011;32625;51.080;16.970;2022-07-23T07:33:04;15.20;;;10.75;;
46889;SDS011;32625;51.080;16.970;2022-07-23T07:35:31;15.75;;;10.75;;
46889;SDS011;32625;51.080;16.970;2022-07-23T07:37:59;11.45;;;10.25;;
46889;SDS011;32625;51.080;16.970;2022-07-23T07:40:26;16.08;;;9.48;;
46889;SDS011;32625;51.080;16.970;2022-07-23T07:42:59;16.70;;;10.63;;
46889;SDS011;32625;51.080;16.970;2022-07-23T07:45:28;13.10;;;10.43;;
46889;SDS011;32625;51.080;16.970;2022-07-23T07:47:56;14.20;;;10.60;;
46889;SDS011;32625;51.080;16.970;2022-07-23T07:50:24;19.55;;;12.02;;
46889;SDS011;32625;51.080;16.970;2022-07-23T07:52:51;13.25;;;10.73;;
46889;SDS011;32625;51.080;16.970;2022-07-23T07:55:19;11.88;;;10.68;;
46889;SDS011;32625;51.080;16.970;2022-07-23T07:57:46;13.52;;;11.35;;
46889;SDS011;32625;51.080;16.970;2022-07-23T08:00:15;13.13;;;10.48;;
46889;SDS011;32625;51.080;16.970;2022-07-23T08:02:44;15.27;;;10.52;;
46889;SDS011;32625;51.080;16.970;2022-07-23T08:05:23;15.10;;;10.90;;
46889;SDS011;32625;51.080;16.970;2022-07-23T08:07:54;17.25;;;11.73;;
46889;SDS011;32625;51.080;16.970;2022-07-23T08:10:23;21.30;;;11.15;;
46889;SDS011;32625;51.080;16.970;2022-07-23T08:12:52;13.18;;;10.77;;
46889;SDS011;32625;51.080;16.970;2022-07-23T08:15:22;12.73;;;10.25;;
46889;SDS011;32625;51.080;16.970;2022-07-23T08:17:50;14.18;;;11.38;;
46889;SDS011;32625;51.080;16.970;2022-07-23T08:20:18;17.10;;;10.88;;
46889;SDS011;32625;51.080;16.970;2022-07-23T08:25:31;20.02;;;10.60;;
46889;SDS011;32625;51.080;16.970;2022-07-23T08:28:01;12.65;;;10.95;;
46889;SDS011;32625;51.080;16.970;2022-07-23T08:30:30;14.32;;;10.55;;
46889;SDS011;32625;51.080;16.970;2022-07-23T08:33:00;12.57;;;11.35;;
46889;SDS011;32625;51.080;16.970;2022-07-23T08:35:30;16.83;;;10.85;;
46889;SDS011;32625;51.080;16.970;2022-07-23T08:37:59;14.07;;;10.65;;
46889;SDS011;32625;51.080;16.970;2022-07-23T08:40:30;12.43;;;11.00;;
46889;SDS011;32625;51.080;16.970;2022-07-23T08:42:58;16.73;;;11.15;;
46889;SDS011;32625;51.080;16.970;2022-07-23T08:45:27;21.25;;;10.02;;
46889;SDS011;32625;51.080;16.970;2022-07-23T08:47:55;12.98;;;10.68;;
46889;SDS011;32625;51.080;16.970;2022-07-23T08:50:29;14.50;;;10.68;;
46889;SDS011;32625;51.080;16.970;2022-07-23T08:52:56;12.15;;;10.38;;
46889;SDS011;32625;51.080;16.970;2022-07-23T08:55:26;17.60;;;10.82;;
46889;SDS011;32625;51.080;16.970;2022-07-23T08:57:54;12.77;;;11.07;;
46889;SDS011;32625;51.080;16.970;2022-07-23T09:00:21;12.60;;;10.73;;
46889;SDS011;32625;51.080;16.970;2022-07-23T09:02:49;13.77;;;10.88;;
46889;SDS011;32625;51.080;16.970;2022-07-23T09:05:18;13.15;;;10.60;;
46889;SDS011;32625;51.080;16.970;2022-07-23T09:10:52;15.45;;;10.18;;
46889;SDS011;32625;51.080;16.970;2022-07-23T09:16:16;15.80;;;9.98;;
46889;SDS011;32625;51.080;16.970;2022-07-23T09:18:51;11.77;;;10.57;;
46889;SDS011;32625;51.080;16.970;2022-07-23T09:23:57;12.50;;;10.05;;
46889;SDS011;32625;51.080;16.970;2022-07-23T09:29:19;11.80;;;10.60;;
46889;SDS011;32625;51.080;16.970;2022-07-23T09:34:26;16.05;;;10.52;;
46889;SDS011;32625;51.080;16.970;2022-07-23T09:36:56;14.20;;;10.35;;
46889;SDS011;32625;51.080;16.970;2022-07-23T09:39:44;12.77;;;9.75;;
46889;SDS011;32625;51.080;16.970;2022-07-23T09:44:42;14.23;;;10.43;;
46889;SDS011;32625;51.080;16.970;2022-07-23T09:47:11;12.02;;;9.95;;
46889;SDS011;32625;51.080;16.970;2022-07-23T09:49:39;15.52;;;10.80;;
46889;SDS011;32625;51.080;16.970;2022-07-23T09:52:06;14.15;;;10.30;;
46889;SDS011;32625;51.080;16.970;2022-07-23T09:54:34;11.43;;;10.15;;
46889;SDS011;32625;51.080;16.970;2022-07-23T09:57:07;11.52;;;10.32;;
46889;SDS011;32625;51.080;16.970;2022-07-23T09:59:40;11.27;;;10.18;;
46889;SDS011;32625;51.080;16.970;2022-07-23T10:02:09;16.98;;;10.60;;
46889;SDS011;32625;51.080;16.970;2022-07-23T10:04:55;20.55;;;11.50;;
46889;SDS011;32625;51.080;16.970;2022-07-23T10:07:41;22.95;;;10.00;;
46889;SDS011;32625;51.080;16.970;2022-07-23T10:10:35;15.15;;;10.60;;
46889;SDS011;32625;51.080;16.970;2022-07-23T10:13:32;18.77;;;10.40;;
46889;SDS011;32625;51.080;16.970;2022-07-23T10:16:16;13.88;;;9.93;;
46889;SDS011;32625;51.080;16.970;2022-07-23T10:18:52;12.90;;;10.43;;
46889;SDS011;32625;51.080;16.970;2022-07-23T10:26:40;16.40;;;12.43;;
46889;SDS011;32625;51.080;16.970;2022-07-23T10:29:23;22.15;;;12.70;;
46889;SDS011;32625;51.080;16.970;2022-07-23T10:34:44;17.42;;;13.18;;
46889;SDS011;32625;51.080;16.970;2022-07-23T10:38:27;15.10;;;12.90;;
46889;SDS011;32625;51.080;16.970;2022-07-23T10:40:22;16.50;;;14.25;;
46889;SDS011;32625;51.080;16.970;2022-07-23T10:42:50;21.85;;;16.45;;
46889;SDS011;32625;51.080;16.970;2022-07-23T10:48:32;18.85;;;15.18;;
46889;SDS011;32625;51.080;16.970;2022-07-23T10:51:07;27.02;;;16.60;;
46889;SDS011;32625;51.080;16.970;2022-07-23T11:02:49;16.58;;;14.90;;
46889;SDS011;32625;51.080;16.970;2022-07-23T11:05:20;22.20;;;17.33;;
46889;SDS011;32625;51.080;16.970;2022-07-23T11:10:40;21.08;;;16.30;;
46889;SDS011;32625;51.080;16.970;2022-07-23T11:24:06;18.55;;;16.63;;
46889;SDS011;32625;51.080;16.970;2022-07-23T11:37:03;20.33;;;18.25;;
46889;SDS011;32625;51.080;16.970;2022-07-23T11:39:32;21.05;;;18.95;;
46889;SDS011;32625;51.080;16.970;2022-07-23T11:42:00;21.00;;;18.52;;
46889;SDS011;32625;51.080;16.970;2022-07-23T11:47:06;21.55;;;18.55;;
46889;SDS011;32625;51.080;16.970;2022-07-23T11:49:35;22.63;;;18.55;;
46889;SDS011;32625;51.080;16.970;2022-07-23T11:52:10;21.27;;;19.48;;
46889;SDS011;32625;51.080;16.970;2022-07-23T11:57:15;20.73;;;18.88;;
46889;SDS011;32625;51.080;16.970;2022-07-23T11:59:44;21.80;;;19.67;;
46889;SDS011;32625;51.080;16.970;2022-07-23T12:02:14;20.73;;;18.73;;
46889;SDS011;32625;51.080;16.970;2022-07-23T12:07:26;20.38;;;18.27;;
46889;SDS011;32625;51.080;16.970;2022-07-23T12:09:59;19.77;;;17.88;;
46889;SDS011;32625;51.080;16.970;2022-07-23T12:12:41;20.67;;;18.55;;
46889;SDS011;32625;51.080;16.970;2022-07-23T12:15:11;20.45;;;18.65;;
46889;SDS011;32625;51.080;16.970;2022-07-23T12:17:40;21.35;;;17.63;;
46889;SDS011;32625;51.080;16.970;2022-07-23T12:20:17;19.50;;;17.70;;
46889;SDS011;32625;51.080;16.970;2022-07-23T12:22:50;18.03;;;16.13;;
46889;SDS011;32625;51.080;16.970;2022-07-23T12:25:23;20.17;;;18.23;;
46889;SDS011;32625;51.080;16.970;2022-07-23T12:28:00;21.20;;;19.00;;
46889;SDS011;32625;51.080;16.970;2022-07-23T12:30:32;19.98;;;18.17;;
46889;SDS011;32625;51.080;16.970;2022-07-23T12:33:06;20.77;;;18.48;;
46889;SDS011;32625;51.080;16.970;2022-07-23T12:35:37;20.27;;;18.42;;
46889;SDS011;32625;51.080;16.970;2022-07-23T12:38:12;19.25;;;17.25;;
46889;SDS011;32625;51.080;16.970;2022-07-23T12:43:28;18.75;;;16.75;;
46889;SDS011;32625;51.080;16.970;2022-07-23T12:46:14;18.98;;;16.13;;
46889;SDS011;32625;51.080;16.970;2022-07-23T12:53:56;17.65;;;14.85;;
46889;SDS011;32625;51.080;16.970;2022-07-23T13:01:38;15.13;;;13.82;;
46889;SDS011;32625;51.080;16.970;2022-07-23T13:04:08;15.07;;;13.43;;
46889;SDS011;32625;51.080;16.970;2022-07-23T13:06:43;16.13;;;14.73;;
46889;SDS011;32625;51.080;16.970;2022-07-23T13:09:16;15.90;;;13.55;;
46889;SDS011;32625;51.080;16.970;2022-07-23T13:11:45;14.90;;;13.40;;
46889;SDS011;32625;51.080;16.970;2022-07-23T13:14:13;15.32;;;13.88;;
46889;SDS011;32625;51.080;16.970;2022-07-23T13:16:42;15.63;;;13.68;;
46889;SDS011;32625;51.080;16.970;2022-07-23T13:19:11;14.50;;;13.13;;
46889;SDS011;32625;51.080;16.970;2022-07-23T13:21:40;17.73;;;13.57;;
46889;SDS011;32625;51.080;16.970;2022-07-23T13:24:08;15.85;;;13.10;;
46889;SDS011;32625;51.080;16.970;2022-07-23T13:26:37;15.65;;;13.65;;
46889;SDS011;32625;51.080;16.970;2022-07-23T13:29:05;18.92;;;14.23;;
46889;SDS011;32625;51.080;16.970;2022-07-23T13:31:35;15.05;;;12.25;;
46889;SDS011;32625;51.080;16.970;2022-07-23T13:34:04;15.60;;;13.88;;
46889;SDS011;32625;51.080;16.970;2022-07-23T13:36:33;15.07;;;13.55;;
46889;SDS011;32625;51.080;16.970;2022-07-23T13:39:02;15.10;;;13.55;;
46889;SDS011;32625;51.080;16.970;2022-07-23T13:41:33;15.55;;;13.88;;
46889;SDS011;32625;51.080;16.970;2022-07-23T13:44:01;14.95;;;13.32;;
46889;SDS011;32625;51.080;16.970;2022-07-23T13:46:29;15.65;;;14.07;;
46889;SDS011;32625;51.080;16.970;2022-07-23T13:48:57;17.13;;;13.40;;
46889;SDS011;32625;51.080;16.970;2022-07-23T13:51:25;15.48;;;13.70;;
46889;SDS011;32625;51.080;16.970;2022-07-23T13:53:55;13.57;;;12.10;;
46889;SDS011;32625;51.080;16.970;2022-07-23T13:56:26;18.15;;;14.15;;
46889;SDS011;32625;51.080;16.970;2022-07-23T13:58:53;15.40;;;13.00;;
46889;SDS011;32625;51.080;16.970;2022-07-23T14:01:23;13.35;;;11.95;;
46889;SDS011;32625;51.080;16.970;2022-07-23T14:03:51;15.30;;;13.68;;
46889;SDS011;32625;51.080;16.970;2022-07-23T14:06:19;21.52;;;14.50;;
46889;SDS011;32625;51.080;16.970;2022-07-23T14:08:58;23.42;;;14.00;;
46889;SDS011;32625;51.080;16.970;2022-07-23T14:11:26;15.35;;;13.88;;
46889;SDS011;32625;51.080;16.970;2022-07-23T14:13:55;16.42;;;14.70;;
46889;SDS011;32625;51.080;16.970;2022-07-23T14:16:22;15.45;;;12.63;;
46889;SDS011;32625;51.080;16.970;2022-07-23T14:18:51;17.73;;;13.73;;
46889;SDS011;32625;51.080;16.970;2022-07-23T14:21:18;14.32;;;12.90;;
46889;SDS011;32625;51.080;16.970;2022-07-23T14:23:46;15.25;;;13.40;;
46889;SDS011;32625;51.080;16.970;2022-07-23T14:26:13;16.38;;;13.43;;
46889;SDS011;32625;51.080;16.970;2022-07-23T14:28:42;17.42;;;12.63;;
46889;SDS011;32625;51.080;16.970;2022-07-23T14:31:14;18.15;;;13.30;;
46889;SDS011;32625;51.080;16.970;2022-07-23T14:33:47;17.27;;;13.43;;
46889;SDS011;32625;51.080;16.970;2022-07-23T14:36:15;16.00;;;13.88;;
46889;SDS011;32625;51.080;16.970;2022-07-23T14:38:43;15.05;;;13.65;;
46889;SDS011;32625;51.080;16.970;2022-07-23T14:41:10;15.15;;;12.65;;
46889;SDS011;32625;51.080;16.970;2022-07-23T14:43:41;16.45;;;12.57;;
46889;SDS011;32625;51.080;16.970;2022-07-23T14:46:10;18.25;;;12.77;;
46889;SDS011;32625;51.080;16.970;2022-07-23T14:48:39;17.23;;;13.23;;
46889;SDS011;32625;51.080;16.970;2022-07-23T14:51:06;16.13;;;12.23;;
46889;SDS011;32625;51.080;16.970;2022-07-23T14:53:34;20.60;;;12.55;;
46889;SDS011;32625;51.080;16.970;2022-07-23T14:56:01;14.90;;;12.48;;
46889;SDS011;32625;51.080;16.970;2022-07-23T14:58:29;13.75;;;12.45;;
46889;SDS011;32625;51.080;16.970;2022-07-23T15:00:57;12.70;;;11.50;;
46889;SDS011;32625;51.080;16.970;2022-07-23T15:03:24;14.13;;;12.10;;
46889;SDS011;32625;51.080;16.970;2022-07-23T15:06:08;14.13;;;12.40;;
46889;SDS011;32625;51.080;16.970;2022-07-23T15:08:35;14.30;;;12.90;;
46889;SDS011;32625;51.080;16.970;2022-07-23T15:11:03;13.40;;;11.98;;
46889;SDS011;32625;51.080;16.970;2022-07-23T15:13:33;18.55;;;13.02;;
46889;SDS011;32625;51.080;16.970;2022-07-23T15:16:00;12.75;;;11.60;;
46889;SDS011;32625;51.080;16.970;2022-07-23T15:18:32;14.75;;;13.05;;
46889;SDS011;32625;51.080;16.970;2022-07-23T15:21:00;13.40;;;12.05;;
46889;SDS011;32625;51.080;16.970;2022-07-23T15:23:28;13.40;;;11.90;;
46889;SDS011;32625;51.080;16.970;2022-07-23T15:25:57;13.23;;;12.13;;
46889;SDS011;32625;51.080;16.970;2022-07-23T15:28:24;14.43;;;12.55;;
46889;SDS011;32625;51.080;16.970;2022-07-23T15:30:53;15.88;;;11.90;;
46889;SDS011;32625;51.080;16.970;2022-07-23T15:33:20;12.85;;;11.57;;
46889;SDS011;32625;51.080;16.970;2022-07-23T15:35:51;15.15;;;12.13;;
46889;SDS011;32625;51.080;16.970;2022-07-23T15:38:21;13.35;;;12.02;;
46889;SDS011;32625;51.080;16.970;2022-07-23T15:40:52;14.63;;;12.02;;
46889;SDS011;32625;51.080;16.970;2022-07-23T15:43:21;13.20;;;11.90;;
46889;SDS011;32625;51.080;16.970;2022-07-23T15:45:51;13.43;;;12.23;;
46889;SDS011;32625;51.080;16.970;2022-07-23T15:48:20;12.45;;;11.32;;